CheckWX is a tool to help pilots better visualize weather data.  It is not intended as a substitute for an official pre-flight weather briefing.

20:27:14 UTC

KFWB METAR
Branson West Municipal - Emerson Field Airport
Branson West, Missouri, USA
Current

32 mins ago

KFWB 201955Z AUTO 15010G17KT 130V190 10SM CLR 21/05 A2997 RMK AO2 P0002 PWINO PNO
Observed
Nov-20 @ 19:55 UTC
Wind
  • 150° at 10 KTS
  • Gusting to 17 KTS
Visibility
10 SM
Flight Rules
VFR
Cloud Levels
  • Clear skies
Temperature
21°C / 70°F
Dewpoint
C / 41°F
Humidity
35%
Altimeter
29.97" Hg
Pressure
1014.92 hPa
Current Rain
0.02"
Previous

52 mins ago

KFWB 201935Z AUTO 17012G20KT 150V210 10SM CLR 21/05 A2997 RMK AO2 P0002 PWINO PNO
Observed
Nov-20 @ 19:35 UTC
Wind
  • 170° at 12 KTS
  • Gusting to 20 KTS
Visibility
10 SM
Flight Rules
VFR
Cloud Levels
  • Clear skies
Temperature
21°C / 70°F
Dewpoint
C / 41°F
Humidity
35%
Altimeter
29.97" Hg
Pressure
1014.92 hPa
Current Rain
0.02"
Previous

1 hour ago

KFWB 201915Z AUTO 16012G23KT 130V190 10SM CLR 22/05 A2999 RMK AO2 P0002 PWINO PNO
Observed
Nov-20 @ 19:15 UTC
Wind
  • 160° at 12 KTS
  • Gusting to 23 KTS
Visibility
10 SM
Flight Rules
VFR
Cloud Levels
  • Clear skies
Temperature
22°C / 72°F
Dewpoint
C / 41°F
Humidity
33%
Altimeter
29.99" Hg
Pressure
1015.62 hPa
Current Rain
0.02"